sensor_id;sensor_type;location;lat;lon;timestamp;P1;durP1;ratioP1;P2;durP2;ratioP2
52542;SDS011;38449;52.696;6.186;2023-02-03T00:01:15;25.45;;;6.03;;
52542;SDS011;38449;52.696;6.186;2023-02-03T00:03:41;24.92;;;4.72;;
52542;SDS011;38449;52.696;6.186;2023-02-03T00:06:06;18.45;;;4.68;;
52542;SDS011;38449;52.696;6.186;2023-02-03T00:08:33;21.58;;;5.40;;
52542;SDS011;38449;52.696;6.186;2023-02-03T00:11:00;16.10;;;4.85;;
52542;SDS011;38449;52.696;6.186;2023-02-03T00:13:26;16.98;;;4.70;;
52542;SDS011;38449;52.696;6.186;2023-02-03T00:15:51;20.50;;;5.57;;
52542;SDS011;38449;52.696;6.186;2023-02-03T00:18:17;21.80;;;5.53;;
52542;SDS011;38449;52.696;6.186;2023-02-03T00:20:44;15.32;;;4.35;;
52542;SDS011;38449;52.696;6.186;2023-02-03T00:23:10;12.73;;;3.80;;
52542;SDS011;38449;52.696;6.186;2023-02-03T00:25:36;17.90;;;5.53;;
52542;SDS011;38449;52.696;6.186;2023-02-03T00:28:03;17.92;;;5.35;;
52542;SDS011;38449;52.696;6.186;2023-02-03T00:30:29;15.32;;;4.00;;
52542;SDS011;38449;52.696;6.186;2023-02-03T00:32:55;10.30;;;3.53;;
52542;SDS011;38449;52.696;6.186;2023-02-03T00:35:22;14.68;;;4.28;;
52542;SDS011;38449;52.696;6.186;2023-02-03T00:37:51;17.70;;;4.53;;
52542;SDS011;38449;52.696;6.186;2023-02-03T00:40:17;15.88;;;4.25;;
52542;SDS011;38449;52.696;6.186;2023-02-03T00:42:44;16.40;;;3.92;;
52542;SDS011;38449;52.696;6.186;2023-02-03T00:45:09;21.23;;;5.15;;
52542;SDS011;38449;52.696;6.186;2023-02-03T00:47:35;19.95;;;4.53;;
52542;SDS011;38449;52.696;6.186;2023-02-03T00:50:01;20.17;;;4.78;;
52542;SDS011;38449;52.696;6.186;2023-02-03T00:52:26;18.67;;;5.05;;
52542;SDS011;38449;52.696;6.186;2023-02-03T00:54:52;25.77;;;6.10;;
52542;SDS011;38449;52.696;6.186;2023-02-03T00:57:17;17.58;;;5.20;;
52542;SDS011;38449;52.696;6.186;2023-02-03T00:59:43;22.98;;;4.80;;
52542;SDS011;38449;52.696;6.186;2023-02-03T01:02:08;19.17;;;5.47;;
52542;SDS011;38449;52.696;6.186;2023-02-03T01:04:35;25.95;;;6.18;;
52542;SDS011;38449;52.696;6.186;2023-02-03T01:07:00;20.70;;;5.40;;
52542;SDS011;38449;52.696;6.186;2023-02-03T01:09:26;20.90;;;5.78;;
52542;SDS011;38449;52.696;6.186;2023-02-03T01:11:51;33.00;;;7.53;;
52542;SDS011;38449;52.696;6.186;2023-02-03T01:14:17;23.60;;;6.03;;
52542;SDS011;38449;52.696;6.186;2023-02-03T01:16:43;23.77;;;6.07;;
52542;SDS011;38449;52.696;6.186;2023-02-03T01:19:08;22.88;;;5.85;;
52542;SDS011;38449;52.696;6.186;2023-02-03T01:21:34;22.58;;;5.88;;
52542;SDS011;38449;52.696;6.186;2023-02-03T01:24:00;16.65;;;4.95;;
52542;SDS011;38449;52.696;6.186;2023-02-03T01:26:26;17.25;;;4.80;;
52542;SDS011;38449;52.696;6.186;2023-02-03T01:31:22;19.05;;;5.40;;
52542;SDS011;38449;52.696;6.186;2023-02-03T01:33:53;16.77;;;5.05;;
52542;SDS011;38449;52.696;6.186;2023-02-03T01:36:20;16.85;;;4.32;;
52542;SDS011;38449;52.696;6.186;2023-02-03T01:38:47;13.68;;;4.20;;
52542;SDS011;38449;52.696;6.186;2023-02-03T01:41:14;17.17;;;4.60;;
52542;SDS011;38449;52.696;6.186;2023-02-03T01:43:43;14.18;;;4.25;;
52542;SDS011;38449;52.696;6.186;2023-02-03T01:46:18;14.82;;;4.20;;
52542;SDS011;38449;52.696;6.186;2023-02-03T01:48:49;18.25;;;4.15;;
52542;SDS011;38449;52.696;6.186;2023-02-03T01:51:16;14.75;;;3.45;;
52542;SDS011;38449;52.696;6.186;2023-02-03T01:53:43;12.85;;;3.58;;
52542;SDS011;38449;52.696;6.186;2023-02-03T01:56:09;14.55;;;3.55;;
52542;SDS011;38449;52.696;6.186;2023-02-03T01:58:37;13.95;;;3.40;;
52542;SDS011;38449;52.696;6.186;2023-02-03T02:01:05;13.05;;;3.28;;
52542;SDS011;38449;52.696;6.186;2023-02-03T02:03:35;15.45;;;4.05;;
52542;SDS011;38449;52.696;6.186;2023-02-03T02:06:14;16.15;;;4.28;;
52542;SDS011;38449;52.696;6.186;2023-02-03T02:08:41;17.95;;;4.43;;
52542;SDS011;38449;52.696;6.186;2023-02-03T02:11:10;18.30;;;4.80;;
52542;SDS011;38449;52.696;6.186;2023-02-03T02:13:36;23.83;;;4.40;;
52542;SDS011;38449;52.696;6.186;2023-02-03T02:16:09;19.33;;;4.47;;
52542;SDS011;38449;52.696;6.186;2023-02-03T02:21:37;16.38;;;4.18;;
52542;SDS011;38449;52.696;6.186;2023-02-03T02:29:53;15.65;;;3.35;;
52542;SDS011;38449;52.696;6.186;2023-02-03T02:38:24;16.90;;;4.68;;
52542;SDS011;38449;52.696;6.186;2023-02-03T02:41:05;13.85;;;3.33;;
52542;SDS011;38449;52.696;6.186;2023-02-03T02:43:42;11.95;;;3.10;;
52542;SDS011;38449;52.696;6.186;2023-02-03T02:46:30;14.13;;;3.50;;
52542;SDS011;38449;52.696;6.186;2023-02-03T02:49:20;11.57;;;2.53;;
52542;SDS011;38449;52.696;6.186;2023-02-03T02:52:04;11.70;;;3.08;;
52542;SDS011;38449;52.696;6.186;2023-02-03T02:54:32;12.00;;;3.13;;
52542;SDS011;38449;52.696;6.186;2023-02-03T02:57:03;15.13;;;3.35;;
52542;SDS011;38449;52.696;6.186;2023-02-03T02:59:30;11.73;;;3.25;;
52542;SDS011;38449;52.696;6.186;2023-02-03T03:01:56;11.13;;;2.80;;
52542;SDS011;38449;52.696;6.186;2023-02-03T03:04:24;19.30;;;5.00;;
52542;SDS011;38449;52.696;6.186;2023-02-03T03:06:53;11.05;;;2.97;;
52542;SDS011;38449;52.696;6.186;2023-02-03T03:09:34;8.63;;;2.90;;
52542;SDS011;38449;52.696;6.186;2023-02-03T03:12:06;18.27;;;3.22;;
52542;SDS011;38449;52.696;6.186;2023-02-03T03:14:42;13.10;;;3.20;;
52542;SDS011;38449;52.696;6.186;2023-02-03T03:17:12;14.05;;;3.03;;
52542;SDS011;38449;52.696;6.186;2023-02-03T03:19:46;10.63;;;2.72;;
52542;SDS011;38449;52.696;6.186;2023-02-03T03:22:16;12.68;;;3.10;;
52542;SDS011;38449;52.696;6.186;2023-02-03T03:24:49;10.88;;;2.75;;
52542;SDS011;38449;52.696;6.186;2023-02-03T03:27:23;11.77;;;3.67;;
52542;SDS011;38449;52.696;6.186;2023-02-03T03:29:53;12.70;;;3.10;;
52542;SDS011;38449;52.696;6.186;2023-02-03T03:32:22;17.58;;;4.63;;
52542;SDS011;38449;52.696;6.186;2023-02-03T03:34:49;19.55;;;5.35;;
52542;SDS011;38449;52.696;6.186;2023-02-03T03:42:11;15.45;;;3.65;;
52542;SDS011;38449;52.696;6.186;2023-02-03T03:44:42;13.73;;;3.45;;
52542;SDS011;38449;52.696;6.186;2023-02-03T03:49:45;17.58;;;4.15;;
52542;SDS011;38449;52.696;6.186;2023-02-03T03:52:13;15.98;;;2.92;;
52542;SDS011;38449;52.696;6.186;2023-02-03T03:54:42;9.70;;;2.80;;
52542;SDS011;38449;52.696;6.186;2023-02-03T03:57:14;14.25;;;3.53;;
52542;SDS011;38449;52.696;6.186;2023-02-03T04:00:04;17.00;;;3.20;;
52542;SDS011;38449;52.696;6.186;2023-02-03T04:02:31;14.57;;;3.33;;
52542;SDS011;38449;52.696;6.186;2023-02-03T04:04:59;14.95;;;3.22;;
52542;SDS011;38449;52.696;6.186;2023-02-03T04:07:42;12.32;;;2.47;;
52542;SDS011;38449;52.696;6.186;2023-02-03T04:10:31;14.98;;;4.35;;
52542;SDS011;38449;52.696;6.186;2023-02-03T04:13:00;11.65;;;3.05;;
52542;SDS011;38449;52.696;6.186;2023-02-03T04:15:27;21.55;;;4.68;;
52542;SDS011;38449;52.696;6.186;2023-02-03T04:17:52;17.15;;;4.07;;
52542;SDS011;38449;52.696;6.186;2023-02-03T04:20:19;27.52;;;5.65;;
52542;SDS011;38449;52.696;6.186;2023-02-03T04:22:45;19.52;;;4.30;;
52542;SDS011;38449;52.696;6.186;2023-02-03T04:25:11;16.70;;;3.63;;
52542;SDS011;38449;52.696;6.186;2023-02-03T04:27:37;14.38;;;4.07;;
52542;SDS011;38449;52.696;6.186;2023-02-03T04:30:04;12.30;;;3.42;;
52542;SDS011;38449;52.696;6.186;2023-02-03T04:32:30;14.30;;;3.25;;
52542;SDS011;38449;52.696;6.186;2023-02-03T04:34:56;15.15;;;3.05;;
52542;SDS011;38449;52.696;6.186;2023-02-03T04:37:22;8.90;;;2.30;;
52542;SDS011;38449;52.696;6.186;2023-02-03T04:39:52;17.02;;;3.25;;
52542;SDS011;38449;52.696;6.186;2023-02-03T04:42:19;9.98;;;2.47;;
52542;SDS011;38449;52.696;6.186;2023-02-03T04:44:46;13.45;;;2.88;;
52542;SDS011;38449;52.696;6.186;2023-02-03T04:47:12;13.32;;;2.72;;
52542;SDS011;38449;52.696;6.186;2023-02-03T04:49:38;12.93;;;2.92;;
52542;SDS011;38449;52.696;6.186;2023-02-03T04:52:03;11.73;;;2.90;;
52542;SDS011;38449;52.696;6.186;2023-02-03T04:54:29;16.42;;;3.47;;
52542;SDS011;38449;52.696;6.186;2023-02-03T04:56:55;14.77;;;3.65;;
52542;SDS011;38449;52.696;6.186;2023-02-03T04:59:20;12.75;;;3.85;;
52542;SDS011;38449;52.696;6.186;2023-02-03T05:01:46;15.48;;;3.38;;
52542;SDS011;38449;52.696;6.186;2023-02-03T05:04:11;14.48;;;3.50;;
52542;SDS011;38449;52.696;6.186;2023-02-03T05:06:37;9.98;;;2.83;;
52542;SDS011;38449;52.696;6.186;2023-02-03T05:09:03;11.77;;;3.00;;
52542;SDS011;38449;52.696;6.186;2023-02-03T05:11:28;14.75;;;3.10;;
52542;SDS011;38449;52.696;6.186;2023-02-03T05:13:55;16.23;;;2.90;;
52542;SDS011;38449;52.696;6.186;2023-02-03T05:16:23;11.20;;;3.00;;
52542;SDS011;38449;52.696;6.186;2023-02-03T05:18:49;18.90;;;3.13;;
52542;SDS011;38449;52.696;6.186;2023-02-03T05:21:14;10.25;;;2.50;;
52542;SDS011;38449;52.696;6.186;2023-02-03T05:23:41;11.50;;;3.35;;
52542;SDS011;38449;52.696;6.186;2023-02-03T05:26:07;14.13;;;3.50;;
52542;SDS011;38449;52.696;6.186;2023-02-03T05:28:34;14.38;;;3.00;;
52542;SDS011;38449;52.696;6.186;2023-02-03T05:31:00;14.77;;;3.30;;
52542;SDS011;38449;52.696;6.186;2023-02-03T05:33:26;12.30;;;3.65;;
52542;SDS011;38449;52.696;6.186;2023-02-03T05:35:52;13.40;;;3.50;;
52542;SDS011;38449;52.696;6.186;2023-02-03T05:38:18;15.10;;;3.20;;
52542;SDS011;38449;52.696;6.186;2023-02-03T05:40:46;15.95;;;3.15;;
52542;SDS011;38449;52.696;6.186;2023-02-03T05:43:35;13.77;;;3.45;;
52542;SDS011;38449;52.696;6.186;2023-02-03T05:46:02;12.50;;;3.00;;
52542;SDS011;38449;52.696;6.186;2023-02-03T05:48:28;13.32;;;3.15;;
52542;SDS011;38449;52.696;6.186;2023-02-03T05:50:56;10.57;;;2.50;;
52542;SDS011;38449;52.696;6.186;2023-02-03T05:53:21;15.35;;;3.08;;
52542;SDS011;38449;52.696;6.186;2023-02-03T05:55:47;17.33;;;3.03;;
52542;SDS011;38449;52.696;6.186;2023-02-03T05:58:13;12.55;;;2.83;;
52542;SDS011;38449;52.696;6.186;2023-02-03T06:00:39;11.77;;;2.75;;
52542;SDS011;38449;52.696;6.186;2023-02-03T06:03:04;11.63;;;2.90;;
52542;SDS011;38449;52.696;6.186;2023-02-03T06:05:32;11.93;;;2.83;;
52542;SDS011;38449;52.696;6.186;2023-02-03T06:07:58;14.75;;;3.33;;
52542;SDS011;38449;52.696;6.186;2023-02-03T06:10:24;13.93;;;3.22;;
52542;SDS011;38449;52.696;6.186;2023-02-03T06:12:50;12.20;;;3.03;;
52542;SDS011;38449;52.696;6.186;2023-02-03T06:15:19;12.85;;;3.03;;
52542;SDS011;38449;52.696;6.186;2023-02-03T06:17:45;14.55;;;3.20;;
52542;SDS011;38449;52.696;6.186;2023-02-03T06:20:13;13.10;;;3.05;;
52542;SDS011;38449;52.696;6.186;2023-02-03T06:22:40;13.20;;;3.40;;
52542;SDS011;38449;52.696;6.186;2023-02-03T06:25:06;13.50;;;2.95;;
52542;SDS011;38449;52.696;6.186;2023-02-03T06:27:32;20.42;;;3.47;;
52542;SDS011;38449;52.696;6.186;2023-02-03T06:29:58;13.63;;;3.25;;
52542;SDS011;38449;52.696;6.186;2023-02-03T06:32:23;14.60;;;3.15;;
52542;SDS011;38449;52.696;6.186;2023-02-03T06:34:49;14.82;;;3.20;;
52542;SDS011;38449;52.696;6.186;2023-02-03T06:37:14;9.93;;;3.17;;
52542;SDS011;38449;52.696;6.186;2023-02-03T06:39:40;12.05;;;2.83;;
52542;SDS011;38449;52.696;6.186;2023-02-03T06:42:07;13.15;;;2.80;;
52542;SDS011;38449;52.696;6.186;2023-02-03T06:44:32;12.90;;;3.33;;
52542;SDS011;38449;52.696;6.186;2023-02-03T06:46:58;15.77;;;2.90;;
52542;SDS011;38449;52.696;6.186;2023-02-03T06:49:24;15.93;;;3.72;;
52542;SDS011;38449;52.696;6.186;2023-02-03T06:51:49;11.10;;;3.17;;
52542;SDS011;38449;52.696;6.186;2023-02-03T06:54:16;12.10;;;3.00;;
52542;SDS011;38449;52.696;6.186;2023-02-03T06:56:42;12.82;;;2.92;;
52542;SDS011;38449;52.696;6.186;2023-02-03T06:59:07;12.23;;;2.97;;
52542;SDS011;38449;52.696;6.186;2023-02-03T07:01:34;15.85;;;3.15;;
52542;SDS011;38449;52.696;6.186;2023-02-03T07:04:00;11.57;;;3.25;;
52542;SDS011;38449;52.696;6.186;2023-02-03T07:06:26;10.63;;;3.28;;
52542;SDS011;38449;52.696;6.186;2023-02-03T07:08:55;11.30;;;3.10;;
52542;SDS011;38449;52.696;6.186;2023-02-03T07:11:20;11.20;;;2.95;;
52542;SDS011;38449;52.696;6.186;2023-02-03T07:13:46;14.77;;;3.38;;
52542;SDS011;38449;52.696;6.186;2023-02-03T07:16:12;14.38;;;3.35;;
52542;SDS011;38449;52.696;6.186;2023-02-03T07:18:38;11.15;;;2.88;;
52542;SDS011;38449;52.696;6.186;2023-02-03T07:21:04;16.45;;;3.35;;
52542;SDS011;38449;52.696;6.186;2023-02-03T07:23:30;12.32;;;2.88;;
52542;SDS011;38449;52.696;6.186;2023-02-03T07:25:59;12.82;;;3.28;;
52542;SDS011;38449;52.696;6.186;2023-02-03T07:28:26;10.68;;;2.90;;
52542;SDS011;38449;52.696;6.186;2023-02-03T07:30:52;11.18;;;2.63;;
52542;SDS011;38449;52.696;6.186;2023-02-03T07:33:18;10.88;;;2.80;;
52542;SDS011;38449;52.696;6.186;2023-02-03T07:35:50;12.00;;;2.80;;
52542;SDS011;38449;52.696;6.186;2023-02-03T07:40:44;10.88;;;3.00;;
52542;SDS011;38449;52.696;6.186;2023-02-03T07:43:10;15.63;;;3.40;;
52542;SDS011;38449;52.696;6.186;2023-02-03T07:45:35;11.10;;;3.25;;
52542;SDS011;38449;52.696;6.186;2023-02-03T07:48:02;12.43;;;2.95;;
52542;SDS011;38449;52.696;6.186;2023-02-03T07:50:28;15.10;;;3.03;;
52542;SDS011;38449;52.696;6.186;2023-02-03T07:52:54;12.18;;;3.05;;
52542;SDS011;38449;52.696;6.186;2023-02-03T07:55:20;11.13;;;3.17;;
52542;SDS011;38449;52.696;6.186;2023-02-03T07:57:46;10.13;;;2.60;;
52542;SDS011;38449;52.696;6.186;2023-02-03T08:00:12;9.75;;;3.55;;
52542;SDS011;38449;52.696;6.186;2023-02-03T08:02:40;11.95;;;2.78;;
52542;SDS011;38449;52.696;6.186;2023-02-03T08:05:06;9.70;;;2.83;;
52542;SDS011;38449;52.696;6.186;2023-02-03T08:07:32;11.77;;;2.88;;
52542;SDS011;38449;52.696;6.186;2023-02-03T08:09:58;10.73;;;3.38;;
52542;SDS011;38449;52.696;6.186;2023-02-03T08:12:23;10.68;;;3.03;;
52542;SDS011;38449;52.696;6.186;2023-02-03T08:14:49;10.40;;;3.28;;
52542;SDS011;38449;52.696;6.186;2023-02-03T08:17:14;9.48;;;2.85;;
52542;SDS011;38449;52.696;6.186;2023-02-03T08:19:40;11.32;;;2.80;;
52542;SDS011;38449;52.696;6.186;2023-02-03T08:22:05;11.77;;;3.15;;
52542;SDS011;38449;52.696;6.186;2023-02-03T08:24:31;9.45;;;2.85;;
52542;SDS011;38449;52.696;6.186;2023-02-03T08:26:57;12.70;;;2.97;;
52542;SDS011;38449;52.696;6.186;2023-02-03T08:29:23;9.93;;;2.88;;
52542;SDS011;38449;52.696;6.186;2023-02-03T08:31:49;14.65;;;4.05;;
52542;SDS011;38449;52.696;6.186;2023-02-03T08:34:14;12.18;;;3.25;;
52542;SDS011;38449;52.696;6.186;2023-02-03T08:36:40;13.50;;;3.63;;
52542;SDS011;38449;52.696;6.186;2023-02-03T08:39:07;12.05;;;2.92;;
52542;SDS011;38449;52.696;6.186;2023-02-03T08:41:32;12.15;;;3.45;;
52542;SDS011;38449;52.696;6.186;2023-02-03T08:43:58;13.68;;;3.97;;
52542;SDS011;38449;52.696;6.186;2023-02-03T08:46:24;12.77;;;3.17;;
52542;SDS011;38449;52.696;6.186;2023-02-03T08:48:49;13.38;;;3.78;;
52542;SDS011;38449;52.696;6.186;2023-02-03T08:51:16;10.18;;;3.53;;
52542;SDS011;38449;52.696;6.186;2023-02-03T08:53:43;12.77;;;3.92;;
52542;SDS011;38449;52.696;6.186;2023-02-03T08:56:10;17.55;;;4.10;;
52542;SDS011;38449;52.696;6.186;2023-02-03T08:58:36;14.10;;;3.70;;
52542;SDS011;38449;52.696;6.186;2023-02-03T09:01:06;12.73;;;3.70;;
52542;SDS011;38449;52.696;6.186;2023-02-03T09:03:36;12.50;;;4.00;;
52542;SDS011;38449;52.696;6.186;2023-02-03T09:06:02;16.52;;;3.60;;
52542;SDS011;38449;52.696;6.186;2023-02-03T09:08:28;15.55;;;3.78;;
52542;SDS011;38449;52.696;6.186;2023-02-03T09:10:54;12.07;;;3.20;;
52542;SDS011;38449;52.696;6.186;2023-02-03T09:13:20;12.60;;;3.33;;
52542;SDS011;38449;52.696;6.186;2023-02-03T09:15:46;14.07;;;4.70;;
52542;SDS011;38449;52.696;6.186;2023-02-03T09:18:11;15.35;;;3.38;;
52542;SDS011;38449;52.696;6.186;2023-02-03T09:20:37;14.05;;;3.97;;
52542;SDS011;38449;52.696;6.186;2023-02-03T09:23:02;15.40;;;3.95;;
52542;SDS011;38449;52.696;6.186;2023-02-03T09:25:28;19.08;;;4.85;;
52542;SDS011;38449;52.696;6.186;2023-02-03T09:27:53;14.52;;;3.88;;
52542;SDS011;38449;52.696;6.186;2023-02-03T09:30:24;17.13;;;3.75;;
52542;SDS011;38449;52.696;6.186;2023-02-03T09:32:51;19.02;;;4.55;;
52542;SDS011;38449;52.696;6.186;2023-02-03T09:35:18;16.33;;;4.18;;
52542;SDS011;38449;52.696;6.186;2023-02-03T09:37:45;17.88;;;3.88;;
52542;SDS011;38449;52.696;6.186;2023-02-03T09:40:21;17.25;;;4.28;;
52542;SDS011;38449;52.696;6.186;2023-02-03T09:45:50;18.88;;;4.10;;
52542;SDS011;38449;52.696;6.186;2023-02-03T09:48:23;17.60;;;3.88;;
52542;SDS011;38449;52.696;6.186;2023-02-03T09:50:54;14.80;;;4.07;;
52542;SDS011;38449;52.696;6.186;2023-02-03T09:53:30;16.83;;;3.42;;
52542;SDS011;38449;52.696;6.186;2023-02-03T09:56:08;15.30;;;3.75;;
52542;SDS011;38449;52.696;6.186;2023-02-03T09:58:43;13.80;;;3.88;;
52542;SDS011;38449;52.696;6.186;2023-02-03T10:01:09;18.58;;;3.65;;
52542;SDS011;38449;52.696;6.186;2023-02-03T10:03:56;17.95;;;4.28;;
52542;SDS011;38449;52.696;6.186;2023-02-03T10:06:38;16.70;;;3.67;;
52542;SDS011;38449;52.696;6.186;2023-02-03T10:09:22;17.17;;;4.05;;
52542;SDS011;38449;52.696;6.186;2023-02-03T10:17:24;12.93;;;3.30;;
52542;SDS011;38449;52.696;6.186;2023-02-03T10:22:35;15.85;;;4.18;;
52542;SDS011;38449;52.696;6.186;2023-02-03T10:27:59;21.83;;;4.03;;
52542;SDS011;38449;52.696;6.186;2023-02-03T10:30:43;19.20;;;4.32;;
52542;SDS011;38449;52.696;6.186;2023-02-03T10:33:22;15.52;;;3.60;;
52542;SDS011;38449;52.696;6.186;2023-02-03T10:38:12;21.55;;;4.53;;
52542;SDS011;38449;52.696;6.186;2023-02-03T10:41:04;17.88;;;4.60;;
52542;SDS011;38449;52.696;6.186;2023-02-03T10:43:51;17.98;;;4.63;;
52542;SDS011;38449;52.696;6.186;2023-02-03T10:46:38;18.15;;;5.45;;
52542;SDS011;38449;52.696;6.186;2023-02-03T10:49:28;19.85;;;5.45;;
52542;SDS011;38449;52.696;6.186;2023-02-03T10:51:59;24.15;;;5.22;;
52542;SDS011;38449;52.696;6.186;2023-02-03T10:54:29;17.27;;;5.30;;
52542;SDS011;38449;52.696;6.186;2023-02-03T10:57:05;18.88;;;4.63;;
52542;SDS011;38449;52.696;6.186;2023-02-03T10:59:40;23.30;;;4.95;;
52542;SDS011;38449;52.696;6.186;2023-02-03T11:02:29;20.40;;;5.93;;
52542;SDS011;38449;52.696;6.186;2023-02-03T11:05:08;24.75;;;5.47;;
52542;SDS011;38449;52.696;6.186;2023-02-03T11:07:34;26.13;;;5.40;;
52542;SDS011;38449;52.696;6.186;2023-02-03T11:10:01;27.52;;;6.00;;
52542;SDS011;38449;52.696;6.186;2023-02-03T11:12:27;22.80;;;5.35;;
52542;SDS011;38449;52.696;6.186;2023-02-03T11:14:53;22.83;;;5.45;;
52542;SDS011;38449;52.696;6.186;2023-02-03T11:17:24;22.75;;;5.38;;
52542;SDS011;38449;52.696;6.186;2023-02-03T11:19:55;21.45;;;4.82;;
52542;SDS011;38449;52.696;6.186;2023-02-03T11:22:30;26.42;;;5.47;;
52542;SDS011;38449;52.696;6.186;2023-02-03T11:25:01;25.97;;;5.53;;
52542;SDS011;38449;52.696;6.186;2023-02-03T11:27:30;22.63;;;5.70;;
52542;SDS011;38449;52.696;6.186;2023-02-03T11:32:42;28.77;;;6.63;;
52542;SDS011;38449;52.696;6.186;2023-02-03T11:35:26;30.98;;;6.05;;
52542;SDS011;38449;52.696;6.186;2023-02-03T11:37:55;23.13;;;5.78;;
52542;SDS011;38449;52.696;6.186;2023-02-03T11:40:30;20.75;;;5.88;;
52542;SDS011;38449;52.696;6.186;2023-02-03T11:43:00;26.75;;;5.88;;
52542;SDS011;38449;52.696;6.186;2023-02-03T11:45:37;23.95;;;5.20;;
52542;SDS011;38449;52.696;6.186;2023-02-03T11:53:21;25.48;;;5.65;;
52542;SDS011;38449;52.696;6.186;2023-02-03T11:56:05;24.67;;;6.15;;
52542;SDS011;38449;52.696;6.186;2023-02-03T11:58:51;27.45;;;5.97;;
52542;SDS011;38449;52.696;6.186;2023-02-03T12:06:54;33.17;;;6.55;;
52542;SDS011;38449;52.696;6.186;2023-02-03T12:09:33;26.02;;;5.93;;
52542;SDS011;38449;52.696;6.186;2023-02-03T12:17:55;28.80;;;6.32;;
52542;SDS011;38449;52.696;6.186;2023-02-03T12:23:24;28.33;;;6.18;;
52542;SDS011;38449;52.696;6.186;2023-02-03T12:34:00;33.58;;;8.20;;
52542;SDS011;38449;52.696;6.186;2023-02-03T12:36:29;34.05;;;9.38;;
52542;SDS011;38449;52.696;6.186;2023-02-03T12:39:04;37.17;;;9.85;;
52542;SDS011;38449;52.696;6.186;2023-02-03T12:41:34;37.38;;;7.40;;
52542;SDS011;38449;52.696;6.186;2023-02-03T12:44:16;26.02;;;7.07;;
52542;SDS011;38449;52.696;6.186;2023-02-03T12:46:52;38.42;;;11.95;;
52542;SDS011;38449;52.696;6.186;2023-02-03T12:49:37;39.38;;;11.90;;
52542;SDS011;38449;52.696;6.186;2023-02-03T12:52:16;46.58;;;13.95;;
52542;SDS011;38449;52.696;6.186;2023-02-03T12:54:55;35.47;;;9.73;;
52542;SDS011;38449;52.696;6.186;2023-02-03T12:57:31;34.10;;;7.35;;
52542;SDS011;38449;52.696;6.186;2023-02-03T13:00:14;32.28;;;7.03;;
52542;SDS011;38449;52.696;6.186;2023-02-03T13:03:12;31.05;;;6.72;;
52542;SDS011;38449;52.696;6.186;2023-02-03T13:11:37;35.25;;;8.13;;
52542;SDS011;38449;52.696;6.186;2023-02-03T13:17:07;33.50;;;7.47;;
52542;SDS011;38449;52.696;6.186;2023-02-03T13:19:45;33.33;;;8.38;;
52542;SDS011;38449;52.696;6.186;2023-02-03T13:22:14;33.05;;;7.35;;
52542;SDS011;38449;52.696;6.186;2023-02-03T13:24:43;34.05;;;8.57;;
52542;SDS011;38449;52.696;6.186;2023-02-03T13:27:25;27.50;;;7.50;;
52542;SDS011;38449;52.696;6.186;2023-02-03T13:35:18;40.17;;;8.30;;
52542;SDS011;38449;52.696;6.186;2023-02-03T13:43:58;31.52;;;7.88;;
52542;SDS011;38449;52.696;6.186;2023-02-03T13:46:26;32.03;;;7.30;;
52542;SDS011;38449;52.696;6.186;2023-02-03T13:48:56;32.83;;;6.78;;
52542;SDS011;38449;52.696;6.186;2023-02-03T13:51:26;34.35;;;6.88;;
52542;SDS011;38449;52.696;6.186;2023-02-03T13:54:00;33.72;;;7.35;;
52542;SDS011;38449;52.696;6.186;2023-02-03T13:56:30;31.55;;;7.93;;
52542;SDS011;38449;52.696;6.186;2023-02-03T13:58:58;35.70;;;8.10;;
52542;SDS011;38449;52.696;6.186;2023-02-03T14:01:40;35.00;;;8.63;;
52542;SDS011;38449;52.696;6.186;2023-02-03T14:07:00;31.83;;;8.80;;
52542;SDS011;38449;52.696;6.186;2023-02-03T14:14:41;30.35;;;7.55;;
52542;SDS011;38449;52.696;6.186;2023-02-03T14:20:01;33.85;;;8.48;;
52542;SDS011;38449;52.696;6.186;2023-02-03T14:22:33;26.17;;;7.43;;
52542;SDS011;38449;52.696;6.186;2023-02-03T14:25:04;32.90;;;7.28;;
52542;SDS011;38449;52.696;6.186;2023-02-03T14:27:32;28.98;;;6.85;;
52542;SDS011;38449;52.696;6.186;2023-02-03T14:30:16;36.38;;;8.38;;
52542;SDS011;38449;52.696;6.186;2023-02-03T14:32:49;27.92;;;6.82;;
52542;SDS011;38449;52.696;6.186;2023-02-03T14:35:40;35.17;;;7.93;;
52542;SDS011;38449;52.696;6.186;2023-02-03T14:38:06;33.60;;;7.80;;
52542;SDS011;38449;52.696;6.186;2023-02-03T14:40:58;28.48;;;6.05;;
52542;SDS011;38449;52.696;6.186;2023-02-03T14:43:31;34.15;;;7.50;;
52542;SDS011;38449;52.696;6.186;2023-02-03T14:46:12;30.98;;;6.70;;
52542;SDS011;38449;52.696;6.186;2023-02-03T14:48:47;37.35;;;7.22;;
52542;SDS011;38449;52.696;6.186;2023-02-03T14:51:23;29.15;;;6.15;;
52542;SDS011;38449;52.696;6.186;2023-02-03T14:59:43;30.73;;;6.28;;
52542;SDS011;38449;52.696;6.186;2023-02-03T15:02:16;27.77;;;6.72;;
52542;SDS011;38449;52.696;6.186;2023-02-03T15:04:47;28.80;;;6.70;;
52542;SDS011;38449;52.696;6.186;2023-02-03T15:07:34;24.98;;;6.57;;
52542;SDS011;38449;52.696;6.186;2023-02-03T15:10:16;30.75;;;6.00;;
52542;SDS011;38449;52.696;6.186;2023-02-03T15:12:46;27.63;;;6.65;;
52542;SDS011;38449;52.696;6.186;2023-02-03T15:15:16;34.42;;;6.95;;
52542;SDS011;38449;52.696;6.186;2023-02-03T15:17:44;29.77;;;7.18;;
52542;SDS011;38449;52.696;6.186;2023-02-03T15:20:19;31.95;;;6.63;;
52542;SDS011;38449;52.696;6.186;2023-02-03T15:23:00;30.98;;;6.20;;
52542;SDS011;38449;52.696;6.186;2023-02-03T15:25:28;29.90;;;6.78;;
52542;SDS011;38449;52.696;6.186;2023-02-03T15:28:09;36.53;;;7.80;;
52542;SDS011;38449;52.696;6.186;2023-02-03T15:30:44;24.98;;;6.82;;
52542;SDS011;38449;52.696;6.186;2023-02-03T15:33:13;28.10;;;6.38;;
52542;SDS011;38449;52.696;6.186;2023-02-03T15:35:45;33.30;;;5.93;;
52542;SDS011;38449;52.696;6.186;2023-02-03T15:38:23;29.45;;;6.63;;
52542;SDS011;38449;52.696;6.186;2023-02-03T15:40:54;22.50;;;6.28;;
52542;SDS011;38449;52.696;6.186;2023-02-03T15:43:39;32.35;;;7.20;;
52542;SDS011;38449;52.696;6.186;2023-02-03T15:48:51;29.42;;;7.55;;
52542;SDS011;38449;52.696;6.186;2023-02-03T15:51:42;32.22;;;6.55;;
52542;SDS011;38449;52.696;6.186;2023-02-03T15:54:40;33.67;;;7.57;;
52542;SDS011;38449;52.696;6.186;2023-02-03T15:57:15;33.78;;;8.88;;
52542;SDS011;38449;52.696;6.186;2023-02-03T15:59:57;34.78;;;9.43;;
52542;SDS011;38449;52.696;6.186;2023-02-03T16:02:29;41.90;;;14.43;;
52542;SDS011;38449;52.696;6.186;2023-02-03T16:05:04;42.60;;;14.45;;
52542;SDS011;38449;52.696;6.186;2023-02-03T16:07:44;41.92;;;10.93;;
52542;SDS011;38449;52.696;6.186;2023-02-03T16:13:16;31.15;;;7.32;;
52542;SDS011;38449;52.696;6.186;2023-02-03T16:15:55;37.38;;;5.97;;
52542;SDS011;38449;52.696;6.186;2023-02-03T16:18:28;26.88;;;7.28;;
52542;SDS011;38449;52.696;6.186;2023-02-03T16:20:54;28.98;;;7.80;;
52542;SDS011;38449;52.696;6.186;2023-02-03T16:23:21;30.40;;;8.15;;
52542;SDS011;38449;52.696;6.186;2023-02-03T16:26:00;29.75;;;7.47;;
52542;SDS011;38449;52.696;6.186;2023-02-03T16:28:38;34.40;;;7.50;;
52542;SDS011;38449;52.696;6.186;2023-02-03T16:34:13;30.52;;;7.15;;
52542;SDS011;38449;52.696;6.186;2023-02-03T16:36:59;39.10;;;8.25;;
52542;SDS011;38449;52.696;6.186;2023-02-03T16:39:44;30.17;;;6.95;;
52542;SDS011;38449;52.696;6.186;2023-02-03T16:42:36;35.25;;;7.30;;
52542;SDS011;38449;52.696;6.186;2023-02-03T16:45:22;33.63;;;7.00;;
52542;SDS011;38449;52.696;6.186;2023-02-03T16:48:09;30.98;;;6.82;;
52542;SDS011;38449;52.696;6.186;2023-02-03T16:50:55;34.47;;;7.75;;
52542;SDS011;38449;52.696;6.186;2023-02-03T16:53:23;37.03;;;7.65;;
52542;SDS011;38449;52.696;6.186;2023-02-03T16:55:52;28.83;;;6.60;;